createdAt,value
2019-04-22T00:00:08.634Z,48.79
2019-04-22T00:01:14.953Z,49.29
2019-04-22T00:02:10.887Z,47.66
2019-04-22T00:03:10.641Z,48.68
2019-04-22T00:04:09.944Z,48.40
2019-04-22T00:05:19.123Z,48.99
2019-04-22T00:06:30.947Z,49.01
2019-04-22T00:07:29.180Z,48.27
2019-04-22T00:08:38.431Z,48.60
2019-04-22T00:09:30.898Z,48.40
2019-04-22T00:10:34.151Z,48.60
2019-04-22T00:11:38.451Z,48.40
2019-04-22T00:12:35.917Z,48.50
2019-04-22T00:13:39.151Z,47.28
2019-04-22T00:14:28.345Z,48.19
2019-04-22T00:15:29.226Z,47.99
2019-04-22T00:16:37.783Z,48.19
2019-04-22T00:17:40.159Z,47.99
2019-04-22T00:18:47.394Z,47.89
2019-04-22T00:19:38.877Z,48.40
2019-04-22T00:20:36.520Z,47.49
2019-04-22T00:21:33.327Z,48.10
2019-04-22T00:22:32.113Z,47.79
2019-04-22T00:23:31.708Z,47.49
2019-04-22T00:24:30.695Z,48.63
2019-04-22T00:25:34.440Z,47.91
2019-04-22T00:26:37.889Z,49.24
2019-04-22T00:27:40.668Z,48.93
2019-04-22T00:28:41.532Z,49.65
2019-04-22T00:29:49.402Z,49.04
2019-04-22T00:30:28.096Z,48.65
2019-04-22T00:31:29.348Z,49.85
2019-04-22T00:32:31.793Z,49.54
2019-04-22T00:33:32.339Z,49.57
2019-04-22T00:34:30.261Z,49.13
2019-04-22T00:35:29.337Z,48.85
2019-04-22T00:36:28.906Z,48.75
2019-04-22T00:37:34.697Z,49.77
2019-04-22T00:38:38.675Z,49.46
2019-04-22T00:39:38.395Z,49.54
2019-04-22T00:40:35.129Z,49.77
2019-04-22T00:41:35.780Z,49.57
2019-04-22T00:42:34.745Z,48.85
2019-04-22T00:43:36.916Z,48.96
2019-04-22T00:44:31.801Z,48.85
2019-04-22T00:45:33.360Z,48.24
2019-04-22T00:46:31.823Z,48.44
2019-04-22T00:47:36.722Z,48.65
2019-04-22T00:48:38.596Z,49.04
2019-04-22T00:50:32.671Z,48.63
2019-04-22T00:51:33.734Z,48.55
2019-04-22T00:52:37.172Z,48.55
2019-04-22T00:53:37.227Z,48.65
2019-04-22T00:54:35.754Z,48.63
2019-04-22T00:55:32.709Z,48.44
2019-04-22T00:56:28.262Z,48.65
2019-04-22T00:57:35.539Z,48.65
2019-04-22T00:58:31.190Z,48.85
2019-04-22T00:59:29.682Z,48.55
2019-04-22T01:00:31.294Z,48.96
2019-04-22T01:01:32.121Z,48.44
2019-04-22T01:02:34.231Z,48.44
2019-04-22T01:03:38.637Z,48.55
2019-04-22T01:04:35.098Z,48.44
2019-04-22T01:05:37.038Z,48.55
2019-04-22T01:06:32.975Z,48.75
2019-04-22T01:07:30.552Z,48.85
2019-04-22T01:08:43.512Z,48.96
2019-04-22T01:09:33.031Z,49.46
2019-04-22T01:10:31.885Z,48.96
2019-04-22T01:11:52.620Z,48.75
2019-04-22T01:12:31.935Z,49.26
2019-04-22T01:13:34.689Z,49.77
2019-04-22T01:14:31.229Z,49.77
2019-04-22T01:16:29.676Z,49.90
2019-04-22T01:17:35.924Z,50.00
2019-04-22T01:18:28.126Z,49.49
2019-04-22T01:19:43.847Z,50.23
2019-04-22T01:20:58.829Z,50.00
2019-04-22T01:21:36.979Z,49.41
2019-04-22T01:22:27.077Z,50.02
2019-04-22T01:23:29.650Z,49.82
2019-04-22T01:24:26.481Z,50.12
2019-04-22T01:25:24.957Z,50.63
2019-04-22T01:26:25.587Z,50.43
2019-04-22T01:27:20.429Z,50.94
2019-04-22T01:28:18.019Z,49.71
2019-04-22T01:29:19.683Z,50.12
2019-04-22T01:30:19.683Z,50.02
2019-04-22T01:31:12.343Z,50.43
2019-04-22T01:32:15.367Z,50.45
2019-04-22T01:33:16.010Z,50.23
2019-04-22T01:34:23.362Z,50.02
2019-04-22T01:35:20.956Z,50.35
2019-04-22T01:36:25.845Z,50.23
2019-04-22T01:37:27.009Z,49.92
2019-04-22T01:38:26.672Z,50.02
2019-04-22T01:39:33.870Z,50.12
2019-04-22T01:40:36.929Z,50.33
2019-04-22T01:42:32.775Z,50.12
2019-04-22T01:43:50.015Z,50.12
2019-04-22T01:44:33.193Z,50.33
2019-04-22T01:45:33.068Z,50.25
2019-04-22T01:46:36.920Z,50.43
2019-04-22T01:48:36.614Z,50.76
2019-04-22T01:49:33.345Z,50.76
2019-04-22T01:50:32.145Z,51.17
2019-04-22T01:51:48.275Z,51.37
2019-04-22T01:52:29.145Z,51.19
2019-04-22T01:53:37.458Z,50.89
2019-04-22T01:54:35.373Z,50.99
2019-04-22T01:55:32.373Z,50.99
2019-04-22T01:56:33.353Z,51.09
2019-04-22T01:57:31.737Z,52.01
2019-04-22T01:58:23.440Z,51.29
2019-04-22T01:59:25.679Z,52.01
2019-04-22T02:00:35.946Z,51.29
2019-04-22T02:01:37.634Z,52.22
2019-04-22T02:02:35.404Z,52.22
2019-04-22T02:03:33.367Z,52.62
2019-04-22T02:04:39.287Z,52.01
2019-04-22T02:05:30.095Z,51.40
2019-04-22T02:06:34.862Z,52.11
2019-04-22T02:07:34.416Z,52.32
2019-04-22T02:08:40.564Z,51.81
2019-04-22T02:10:34.669Z,52.11
2019-04-22T02:11:38.998Z,51.91
2019-04-22T02:12:33.315Z,52.32
2019-04-22T02:13:38.229Z,51.60
2019-04-22T02:14:34.084Z,51.29
2019-04-22T02:15:31.243Z,51.81
2019-04-22T02:16:34.267Z,51.70
2019-04-22T02:17:36.833Z,52.01
2019-04-22T02:19:37.629Z,51.70
2019-04-22T02:20:31.600Z,52.62
2019-04-22T02:21:31.902Z,51.50
2019-04-22T02:22:50.841Z,51.60
2019-04-22T02:24:37.706Z,52.65
2019-04-22T02:25:34.526Z,53.06
2019-04-22T02:26:35.517Z,52.85
2019-04-22T02:27:52.418Z,52.14
2019-04-22T02:28:38.360Z,53.16
2019-04-22T02:29:34.650Z,52.85
2019-04-22T02:30:55.734Z,52.55
2019-04-22T02:31:55.999Z,52.75
2019-04-22T02:35:55.125Z,53.39
2019-04-22T02:36:34.025Z,53.28
2019-04-22T02:37:35.840Z,53.19
2019-04-22T02:39:36.128Z,53.19
2019-04-22T02:40:44.392Z,53.08
2019-04-22T02:41:34.916Z,53.19
2019-04-22T02:42:52.253Z,53.39
2019-04-22T02:44:37.423Z,53.39
2019-04-22T02:45:52.197Z,53.39
2019-04-22T02:46:52.980Z,53.19
2019-04-22T02:47:50.274Z,53.16
2019-04-22T02:49:37.492Z,53.49
2019-04-22T02:50:37.197Z,53.80
2019-04-22T02:55:44.277Z,54.03
2019-04-22T02:56:38.151Z,53.69
2019-04-22T02:57:39.836Z,53.90
2019-04-22T02:58:58.352Z,53.80
2019-04-22T03:00:37.616Z,53.90
2019-04-22T03:01:39.028Z,53.80
2019-04-22T03:02:52.593Z,53.90
2019-04-22T03:03:50.518Z,53.90
2019-04-22T03:04:35.606Z,54.23
2019-04-22T03:06:34.830Z,54.03
2019-04-22T03:07:55.820Z,54.03
2019-04-22T03:08:41.952Z,53.69
2019-04-22T03:09:41.069Z,53.59
2019-04-22T03:12:11.962Z,53.69
2019-04-22T03:14:38.094Z,53.90
2019-04-22T03:15:41.162Z,54.00
2019-04-22T03:16:37.521Z,53.59
2019-04-22T03:17:51.732Z,54.21
2019-04-22T03:20:33.939Z,54.64
2019-04-22T03:23:51.438Z,54.44
2019-04-22T03:24:36.303Z,54.64
2019-04-22T03:26:38.995Z,54.74
2019-04-22T03:27:34.973Z,53.72
2019-04-22T03:29:44.693Z,54.97
2019-04-22T03:31:58.206Z,54.97
2019-04-22T03:33:40.022Z,55.08
2019-04-22T03:35:55.609Z,54.87
2019-04-22T03:37:04.486Z,55.49
2019-04-22T03:37:53.335Z,54.87
2019-04-22T03:38:58.655Z,55.36
2019-04-22T03:40:54.808Z,54.64
2019-04-22T03:42:41.534Z,54.97
2019-04-22T03:43:43.830Z,54.87
2019-04-22T03:44:38.448Z,55.08
2019-04-22T03:45:37.899Z,54.97
2019-04-22T03:46:43.889Z,54.97
2019-04-22T03:47:45.320Z,54.97
2019-04-22T03:48:39.700Z,54.87
2019-04-22T03:50:28.277Z,55.18
2019-04-22T03:52:30.998Z,55.49
2019-04-22T03:55:00.783Z,55.28
2019-04-22T03:55:38.476Z,55.41
2019-04-22T03:57:48.922Z,55.51
2019-04-22T03:58:40.970Z,55.82
2019-04-22T03:59:46.032Z,56.46
2019-04-22T04:00:45.509Z,55.51
2019-04-22T04:01:44.529Z,55.72
2019-04-22T04:03:39.719Z,55.72
2019-04-22T04:06:52.431Z,55.30
2019-04-22T04:07:55.828Z,55.51
2019-04-22T04:08:53.303Z,55.82
2019-04-22T04:10:40.209Z,55.41
2019-04-22T04:11:58.004Z,55.51
2019-04-22T04:12:38.218Z,55.92
2019-04-22T04:13:33.764Z,55.72
2019-04-22T04:15:38.447Z,56.74
2019-04-22T04:16:39.268Z,56.84
2019-04-22T04:18:46.731Z,55.92
2019-04-22T04:19:43.829Z,56.33
2019-04-22T04:20:36.450Z,57.15
2019-04-22T04:27:54.061Z,57.61
2019-04-22T04:30:55.186Z,56.87
2019-04-22T04:32:55.389Z,58.23
2019-04-22T04:33:40.682Z,57.92
2019-04-22T04:34:53.872Z,57.69
2019-04-22T04:35:43.032Z,57.00
2019-04-22T04:36:37.118Z,57.89
2019-04-22T04:39:51.195Z,57.28
2019-04-22T04:40:31.499Z,57.28
2019-04-22T04:41:42.801Z,57.59
2019-04-22T04:42:43.152Z,57.10
2019-04-22T04:43:50.522Z,58.03
2019-04-22T04:44:59.246Z,57.79
2019-04-22T04:45:46.162Z,57.51
2019-04-22T04:49:43.895Z,58.05
2019-04-22T04:50:38.329Z,58.46
2019-04-22T04:51:43.969Z,57.95
2019-04-22T04:53:31.803Z,58.15
2019-04-22T04:54:44.432Z,58.26
2019-04-22T04:55:44.209Z,58.23
2019-04-22T04:56:44.524Z,58.56
2019-04-22T04:57:43.533Z,58.05
2019-04-22T04:58:46.266Z,58.15
2019-04-22T04:59:57.724Z,58.67
2019-04-22T05:01:39.757Z,57.20
2019-04-22T05:02:44.767Z,57.82
2019-04-22T05:03:49.910Z,57.10
2019-04-22T05:04:53.271Z,57.61
2019-04-22T05:05:35.310Z,57.41
2019-04-22T05:07:48.649Z,57.20
2019-04-22T05:10:56.658Z,57.92
2019-04-22T05:11:52.101Z,57.00
2019-04-22T05:13:39.646Z,57.07
2019-04-22T05:14:34.711Z,56.26
2019-04-22T05:15:34.999Z,55.54
2019-04-22T05:17:41.236Z,55.21
2019-04-22T05:18:37.704Z,55.41
2019-04-22T05:21:50.632Z,55.08
2019-04-22T05:22:34.079Z,54.67
2019-04-22T05:23:40.491Z,54.67
2019-04-22T05:24:51.866Z,54.67
2019-04-22T05:25:26.949Z,53.75
2019-04-22T05:26:32.595Z,53.54
2019-04-22T05:27:34.247Z,54.36
2019-04-22T05:28:31.790Z,53.52
2019-04-22T05:29:36.257Z,54.33
2019-04-22T05:30:39.544Z,53.72
2019-04-22T05:31:52.390Z,53.19
2019-04-22T05:32:37.061Z,52.87
2019-04-22T05:33:32.078Z,53.88
2019-04-22T05:34:29.153Z,52.75
2019-04-22T05:35:32.452Z,52.34
2019-04-22T05:36:38.078Z,52.34
2019-04-22T05:38:33.307Z,52.72
2019-04-22T05:39:29.722Z,52.32
2019-04-22T05:41:30.634Z,52.32
2019-04-22T05:42:23.463Z,52.01
2019-04-22T05:43:29.143Z,51.29
2019-04-22T05:44:32.898Z,51.29
2019-04-22T05:45:24.983Z,51.27
2019-04-22T05:46:28.324Z,50.76
2019-04-22T05:47:26.249Z,50.56
2019-04-22T05:48:37.336Z,50.84
2019-04-22T05:49:41.562Z,50.94
2019-04-22T05:50:24.323Z,51.15
2019-04-22T05:51:31.422Z,50.33
2019-04-22T05:52:26.627Z,50.71
2019-04-22T05:53:31.281Z,50.00
2019-04-22T05:54:28.975Z,50.53
2019-04-22T05:55:32.398Z,51.15
2019-04-22T05:56:32.820Z,50.81
2019-04-22T05:57:35.260Z,51.02
2019-04-22T05:58:33.902Z,50.94
2019-04-22T05:59:36.154Z,50.20
2019-04-22T06:00:59.996Z,50.61
2019-04-22T06:01:38.818Z,50.18
2019-04-22T06:02:39.756Z,50.28
2019-04-22T06:03:35.303Z,49.87
2019-04-22T06:04:29.692Z,49.77
2019-04-22T06:05:32.917Z,49.77
2019-04-22T06:06:39.935Z,49.67
2019-04-22T06:07:26.400Z,49.67
2019-04-22T06:08:24.183Z,49.75
2019-04-22T06:09:30.607Z,49.44
2019-04-22T06:10:34.398Z,49.75
2019-04-22T06:12:23.402Z,48.91
2019-04-22T06:13:23.334Z,48.40
2019-04-22T06:14:27.866Z,49.83
2019-04-22T06:15:30.098Z,49.73
2019-04-22T06:16:32.007Z,48.71
2019-04-22T06:17:37.991Z,48.91
2019-04-22T06:18:27.246Z,47.97
2019-04-22T06:19:24.761Z,49.09
2019-04-22T06:20:32.353Z,48.89
2019-04-22T06:21:35.752Z,48.38
2019-04-22T06:22:37.529Z,48.07
2019-04-22T06:23:36.118Z,47.46
2019-04-22T06:24:32.463Z,47.44
2019-04-22T06:25:39.531Z,48.07
2019-04-22T06:26:37.556Z,47.24
2019-04-22T06:28:35.291Z,48.07
2019-04-22T06:29:31.985Z,47.85
2019-04-22T06:30:28.397Z,47.24
2019-04-22T06:31:36.923Z,47.74
2019-04-22T06:32:42.508Z,48.76
2019-04-22T06:33:34.590Z,48.35
2019-04-22T06:34:29.785Z,47.52
2019-04-22T06:36:29.525Z,47.31
2019-04-22T06:37:55.308Z,47.21
2019-04-22T06:38:34.047Z,47.31
2019-04-22T06:41:34.614Z,46.98
2019-04-22T06:42:28.759Z,47.09
2019-04-22T06:43:33.828Z,46.58
2019-04-22T06:44:29.578Z,47.19
2019-04-22T06:45:32.378Z,46.25
2019-04-22T06:47:43.867Z,46.25
2019-04-22T06:49:33.444Z,46.66
2019-04-22T06:50:32.842Z,46.86
2019-04-22T06:52:49.669Z,45.93
2019-04-22T06:53:30.106Z,46.64
2019-04-22T06:54:28.191Z,45.93
2019-04-22T06:55:23.293Z,45.72
2019-04-22T06:56:27.596Z,45.80
2019-04-22T06:57:30.543Z,45.09
2019-04-22T06:58:28.929Z,46.01
2019-04-22T06:59:42.690Z,44.99
2019-04-22T07:00:32.344Z,44.59
2019-04-22T07:01:30.120Z,44.89
2019-04-22T07:02:32.057Z,44.26
2019-04-22T07:04:31.428Z,43.65
2019-04-22T07:05:27.554Z,43.75
2019-04-22T07:07:25.216Z,43.75
2019-04-22T07:09:02.415Z,43.65
2019-04-22T07:09:40.154Z,44.36
2019-04-22T07:11:27.812Z,43.75
2019-04-22T07:12:29.048Z,43.65
2019-04-22T07:13:27.415Z,43.65
2019-04-22T07:14:22.360Z,43.85
2019-04-22T07:15:42.386Z,43.44
2019-04-22T07:16:31.957Z,43.44
2019-04-22T07:17:34.375Z,43.73
2019-04-22T07:18:33.000Z,43.32
2019-04-22T07:19:28.102Z,43.73
2019-04-22T07:20:30.399Z,43.32
2019-04-22T07:22:31.162Z,43.41
2019-04-22T07:23:28.436Z,43.81
2019-04-22T07:25:23.535Z,43.51
2019-04-22T07:26:25.222Z,42.57
2019-04-22T07:27:29.271Z,43.49
2019-04-22T07:28:23.386Z,43.08
2019-04-22T07:29:25.106Z,42.27
2019-04-22T07:30:26.249Z,42.37
2019-04-22T07:31:32.542Z,42.37
2019-04-22T07:33:36.192Z,41.99
2019-04-22T07:34:49.902Z,41.56
2019-04-22T07:37:38.856Z,41.26
2019-04-22T07:38:26.783Z,42.25
2019-04-22T07:39:29.747Z,41.74
2019-04-22T07:40:36.651Z,42.13
2019-04-22T07:41:28.824Z,41.22
2019-04-22T07:42:32.563Z,41.42
2019-04-22T07:43:41.829Z,41.22
2019-04-22T07:44:31.243Z,40.91
2019-04-22T07:45:29.634Z,41.64
2019-04-22T07:46:24.249Z,40.73
2019-04-22T07:47:35.924Z,41.12
2019-04-22T07:48:35.695Z,41.42
2019-04-22T07:49:35.245Z,40.94
2019-04-22T07:50:43.043Z,41.02
2019-04-22T07:51:27.124Z,41.52
2019-04-22T07:52:32.001Z,41.32
2019-04-22T07:54:26.309Z,39.90
2019-04-22T07:55:29.535Z,40.31
2019-04-22T07:56:24.366Z,40.20
2019-04-22T07:57:32.829Z,39.90
2019-04-22T07:58:28.913Z,39.88
2019-04-22T07:59:30.630Z,40.19
2019-04-22T08:00:29.027Z,40.09
2019-04-22T08:01:26.422Z,39.48
2019-04-22T08:02:34.116Z,40.59
2019-04-22T08:03:53.300Z,40.09
2019-04-22T08:06:46.027Z,39.86
2019-04-22T08:07:30.470Z,40.17
2019-04-22T08:09:27.744Z,40.25
2019-04-22T08:10:38.362Z,38.63
2019-04-22T08:12:36.212Z,38.13
2019-04-22T08:12:36.567Z,38.73
2019-04-22T08:13:17.225Z,37.92
2019-04-22T08:14:31.269Z,38.63
2019-04-22T08:15:28.020Z,37.94
2019-04-22T08:16:23.325Z,38.53
2019-04-22T08:17:51.848Z,38.43
2019-04-22T08:18:32.892Z,39.64
2019-04-22T08:19:28.717Z,38.13
2019-04-22T08:20:28.816Z,37.72
2019-04-22T08:21:23.745Z,38.02
2019-04-22T08:22:23.992Z,37.82
2019-04-22T08:23:33.200Z,38.21
2019-04-22T08:24:29.035Z,37.81
2019-04-22T08:25:24.556Z,38.21
2019-04-22T08:26:30.379Z,37.32
2019-04-22T08:27:25.219Z,36.71
2019-04-22T08:28:32.000Z,37.42
2019-04-22T08:30:33.771Z,36.99
2019-04-22T08:31:28.673Z,36.39
2019-04-22T08:32:31.358Z,35.28
2019-04-22T08:33:29.089Z,35.58
2019-04-22T08:34:27.489Z,34.27
2019-04-22T08:35:40.769Z,35.88
2019-04-22T08:36:58.745Z,35.38
2019-04-22T08:38:50.404Z,35.06
2019-04-22T08:39:32.518Z,34.15
2019-04-22T08:40:36.334Z,35.38
2019-04-22T08:41:40.159Z,34.97
2019-04-22T08:42:35.159Z,35.28
2019-04-22T08:43:39.213Z,36.19
2019-04-22T08:44:39.157Z,36.27
2019-04-22T08:45:46.121Z,35.88
2019-04-22T08:46:40.425Z,35.66
2019-04-22T08:47:31.007Z,35.77
2019-04-22T08:48:33.055Z,36.17
2019-04-22T08:49:30.470Z,36.15
2019-04-22T08:50:26.822Z,35.95
2019-04-22T08:51:26.433Z,36.25
2019-04-22T08:52:28.943Z,35.95
2019-04-22T08:53:34.314Z,35.75
2019-04-22T08:54:24.319Z,35.24
2019-04-22T08:57:34.683Z,34.94
2019-04-22T08:58:31.720Z,35.35
2019-04-22T08:59:21.900Z,34.33
2019-04-22T09:00:34.229Z,34.86
2019-04-22T09:01:27.350Z,35.57
2019-04-22T09:03:32.680Z,35.65
2019-04-22T09:04:16.584Z,37.37
2019-04-22T09:05:42.316Z,38.78
2019-04-22T09:07:28.984Z,39.37
2019-04-22T09:08:26.351Z,40.28
2019-04-22T09:09:26.831Z,41.30
2019-04-22T09:10:31.092Z,39.08
2019-04-22T09:11:35.296Z,39.39
2019-04-22T09:12:45.685Z,40.82
2019-04-22T09:13:31.273Z,41.20
2019-04-22T09:14:31.232Z,40.80
2019-04-22T09:15:31.101Z,41.30
2019-04-22T09:16:31.847Z,41.41
2019-04-22T09:17:30.224Z,40.39
2019-04-22T09:18:28.447Z,40.59
2019-04-22T09:19:22.443Z,41.00
2019-04-22T09:20:29.579Z,40.50
2019-04-22T09:21:32.696Z,39.47
2019-04-22T09:22:26.391Z,40.19
2019-04-22T09:23:32.173Z,39.79
2019-04-22T09:24:34.178Z,40.09
2019-04-22T09:25:32.743Z,41.41
2019-04-22T09:26:33.747Z,41.71
2019-04-22T09:27:37.140Z,41.41
2019-04-22T09:28:30.642Z,41.30
2019-04-22T09:29:32.602Z,41.10
2019-04-22T09:30:34.323Z,40.78
2019-04-22T09:31:23.539Z,41.08
2019-04-22T09:32:26.425Z,39.97
2019-04-22T09:33:27.131Z,40.08
2019-04-22T09:34:32.105Z,39.57
2019-04-22T09:35:31.894Z,39.97
2019-04-22T09:36:29.662Z,39.37
2019-04-22T09:37:34.210Z,34.20
2019-04-22T09:39:30.204Z,31.48
2019-04-22T09:40:22.318Z,32.69
2019-04-22T09:41:27.276Z,33.50
2019-04-22T09:42:39.762Z,33.39
2019-04-22T09:43:32.128Z,33.09
2019-04-22T09:44:34.674Z,32.08
2019-04-22T09:45:23.251Z,32.79
2019-04-22T09:46:28.309Z,32.07
2019-04-22T09:47:24.943Z,32.27
2019-04-22T09:48:30.050Z,32.37
2019-04-22T09:49:26.721Z,32.59
2019-04-22T09:50:33.594Z,31.76
2019-04-22T09:51:25.207Z,31.76
2019-04-22T09:52:20.653Z,30.86
2019-04-22T09:53:32.294Z,31.68
2019-04-22T09:54:30.985Z,31.78
2019-04-22T09:55:26.498Z,32.20
2019-04-22T09:56:31.861Z,31.90
2019-04-22T09:57:24.463Z,33.59
2019-04-22T09:58:29.574Z,33.09
2019-04-22T09:59:29.553Z,32.29
2019-04-22T10:00:34.733Z,33.80
2019-04-22T10:03:25.997Z,34.20
2019-04-22T10:04:25.333Z,31.79
2019-04-22T10:05:27.476Z,31.68
2019-04-22T10:07:27.143Z,32.90
2019-04-22T10:08:31.665Z,33.21
2019-04-22T10:09:42.848Z,33.19
2019-04-22T10:10:29.977Z,33.39
2019-04-22T10:12:28.063Z,32.89
2019-04-22T10:14:28.492Z,32.69
2019-04-22T10:15:30.747Z,31.87
2019-04-22T10:16:31.604Z,32.27
2019-04-22T10:17:25.866Z,32.39
2019-04-22T10:18:28.979Z,30.46
2019-04-22T10:19:23.553Z,27.55
2019-04-22T10:20:29.448Z,29.46
2019-04-22T10:21:38.678Z,30.67
2019-04-22T10:23:26.501Z,30.57
2019-04-22T10:24:19.040Z,29.46
2019-04-22T10:25:23.202Z,30.16
2019-04-22T10:26:31.720Z,30.57
2019-04-22T10:27:26.166Z,31.16
2019-04-22T10:28:33.455Z,30.66
2019-04-22T10:29:33.149Z,29.95
2019-04-22T10:30:33.566Z,30.35
2019-04-22T10:32:27.054Z,30.35
2019-04-22T10:33:22.402Z,29.64
2019-04-22T10:34:11.719Z,29.55
2019-04-22T10:35:05.052Z,30.54
2019-04-22T10:35:59.703Z,30.34
2019-04-22T10:37:03.215Z,30.93
2019-04-22T10:38:00.727Z,30.43
2019-04-22T10:39:00.142Z,30.83
2019-04-22T10:40:03.988Z,31.73
2019-04-22T10:41:00.825Z,31.63
2019-04-22T10:41:59.615Z,31.84
2019-04-22T10:43:01.078Z,32.24
2019-04-22T10:43:59.581Z,32.24
2019-04-22T10:45:00.978Z,32.24
2019-04-22T10:45:59.890Z,32.24
2019-04-22T10:47:00.053Z,32.24
2019-04-22T10:48:01.428Z,32.23
2019-04-22T10:49:00.024Z,32.24
2019-04-22T10:50:00.654Z,31.84
2019-04-22T10:51:00.911Z,32.64
2019-04-22T10:52:00.419Z,32.75
2019-04-22T10:52:59.508Z,31.85
2019-04-22T10:53:59.743Z,31.73
2019-04-22T10:54:59.464Z,32.54
2019-04-22T10:56:00.843Z,32.46
2019-04-22T10:56:59.432Z,31.95
2019-04-22T10:57:59.440Z,32.35
2019-04-22T10:59:00.535Z,32.26
2019-04-22T11:00:00.712Z,33.28
2019-04-22T11:01:00.175Z,33.26
2019-04-22T11:01:59.408Z,33.36
2019-04-22T11:03:00.098Z,32.24
2019-04-22T11:03:59.633Z,31.84
2019-04-22T11:04:59.367Z,32.54
2019-04-22T11:05:59.465Z,33.35
2019-04-22T11:07:03.920Z,33.04
2019-04-22T11:08:03.137Z,33.85
2019-04-22T11:09:04.157Z,33.25
2019-04-22T11:10:18.302Z,33.85
2019-04-22T11:11:10.665Z,33.75
2019-04-22T11:12:07.391Z,34.45
2019-04-22T11:13:00.839Z,33.75
2019-04-22T11:14:00.107Z,34.66
2019-04-22T11:15:00.116Z,33.15
2019-04-22T11:16:00.446Z,34.14
2019-04-22T11:17:02.210Z,33.94
2019-04-22T11:17:59.745Z,33.64
2019-04-22T11:18:59.401Z,34.14
2019-04-22T11:19:59.530Z,32.32
2019-04-22T11:20:59.832Z,31.02
2019-04-22T11:22:08.781Z,30.52
2019-04-22T11:23:00.614Z,30.73
2019-04-22T11:24:00.618Z,31.73
2019-04-22T11:25:01.172Z,31.84
2019-04-22T11:25:59.656Z,31.43
2019-04-22T11:26:59.154Z,31.84
2019-04-22T11:28:00.027Z,31.73
2019-04-22T11:28:59.407Z,31.43
2019-04-22T11:29:59.518Z,31.53
2019-04-22T11:31:00.621Z,30.93
2019-04-22T11:32:00.121Z,30.93
2019-04-22T11:33:00.330Z,30.63
2019-04-22T11:33:59.038Z,30.62
2019-04-22T11:34:59.018Z,31.03
2019-04-22T11:35:59.968Z,31.02
2019-04-22T11:36:59.113Z,31.32
2019-04-22T11:37:59.218Z,31.12
2019-04-22T11:39:02.478Z,30.62
2019-04-22T11:40:06.794Z,30.82
2019-04-22T11:41:00.043Z,30.52
2019-04-22T11:42:00.291Z,30.71
2019-04-22T11:42:59.954Z,32.34
2019-04-22T11:43:59.154Z,31.72
2019-04-22T11:44:59.340Z,32.54
2019-04-22T11:45:59.570Z,32.23
2019-04-22T11:46:59.231Z,32.34
2019-04-22T11:47:59.533Z,33.23
2019-04-22T11:49:00.147Z,32.43
2019-04-22T11:49:59.747Z,32.23
2019-04-22T11:51:00.080Z,31.72
2019-04-22T11:51:59.043Z,31.60
2019-04-22T11:52:58.866Z,31.60
2019-04-22T11:53:58.911Z,31.81
2019-04-22T11:54:58.948Z,32.21
2019-04-22T11:55:58.785Z,31.81
2019-04-22T11:56:59.058Z,32.51
2019-04-22T11:57:58.990Z,31.32
2019-04-22T11:58:58.772Z,31.62
2019-04-22T11:59:58.883Z,32.12
2019-04-22T12:00:59.177Z,31.71
2019-04-22T12:01:58.715Z,32.11
2019-04-22T12:02:58.848Z,32.21
2019-04-22T12:03:59.933Z,30.50
2019-04-22T12:04:58.697Z,30.30
2019-04-22T12:05:59.816Z,30.11
2019-04-22T12:07:00.030Z,29.91
2019-04-22T12:07:59.284Z,30.41
2019-04-22T12:08:59.614Z,30.62
2019-04-22T12:09:59.759Z,30.31
2019-04-22T12:11:01.923Z,29.79
2019-04-22T12:11:59.998Z,29.49
2019-04-22T12:12:59.879Z,29.50
2019-04-22T12:13:59.998Z,29.00
2019-04-22T12:14:58.777Z,29.09
2019-04-22T12:15:58.954Z,30.01
2019-04-22T12:16:59.423Z,29.79
2019-04-22T12:17:59.315Z,30.70
2019-04-22T12:18:58.812Z,29.99
2019-04-22T12:20:00.103Z,29.49
2019-04-22T12:20:59.203Z,28.99
2019-04-22T12:21:59.101Z,28.49
2019-04-22T12:22:58.993Z,29.09
2019-04-22T12:23:59.204Z,28.78
2019-04-22T12:24:58.690Z,29.81
2019-04-22T12:26:04.216Z,30.10
2019-04-22T12:26:58.451Z,30.21
2019-04-22T12:27:59.196Z,30.63
2019-04-22T12:28:59.295Z,30.73
2019-04-22T12:29:58.765Z,30.63
2019-04-22T12:30:59.609Z,30.51
2019-04-22T12:31:59.649Z,30.21
2019-04-22T12:32:58.389Z,30.51
2019-04-22T12:33:59.314Z,31.53
2019-04-22T12:34:59.648Z,30.51
2019-04-22T12:35:58.340Z,31.10
2019-04-22T12:36:58.530Z,31.82
2019-04-22T12:38:02.656Z,31.52
2019-04-22T12:38:59.648Z,30.62
2019-04-22T12:39:58.351Z,29.72
2019-04-22T12:41:02.803Z,30.12
2019-04-22T12:42:00.344Z,29.71
2019-04-22T12:42:59.800Z,30.93
2019-04-22T12:43:58.973Z,30.83
2019-04-22T12:44:58.418Z,31.03
2019-04-22T12:45:58.355Z,31.63
2019-04-22T12:47:01.703Z,31.42
2019-04-22T12:47:58.210Z,30.62
2019-04-22T12:48:58.319Z,30.51
2019-04-22T12:50:08.957Z,31.84
2019-04-22T12:50:58.620Z,30.93
2019-04-22T12:51:58.943Z,31.43
2019-04-22T12:53:04.772Z,31.53
2019-04-22T12:53:59.379Z,32.34
2019-04-22T12:54:58.130Z,31.53
2019-04-22T12:55:59.504Z,30.43
2019-04-22T12:56:59.610Z,31.63
2019-04-22T12:58:00.811Z,32.14
2019-04-22T12:58:59.304Z,31.43
2019-04-22T12:59:59.488Z,30.43
2019-04-22T13:00:58.958Z,30.43
2019-04-22T13:01:58.623Z,30.21
2019-04-22T13:02:58.912Z,29.50
2019-04-22T13:04:03.733Z,28.61
2019-04-22T13:05:00.343Z,28.60
2019-04-22T13:05:59.301Z,29.52
2019-04-22T13:06:58.017Z,29.41
2019-04-22T13:07:58.002Z,30.02
2019-04-22T13:08:57.980Z,30.21
2019-04-22T13:09:59.237Z,30.41
2019-04-22T13:11:06.087Z,30.01
2019-04-22T13:11:59.331Z,29.72
2019-04-22T13:12:58.664Z,30.84
2019-04-22T13:13:58.986Z,30.12
2019-04-22T13:14:59.199Z,30.12
2019-04-22T13:15:59.337Z,29.81
2019-04-22T13:16:57.898Z,30.12
2019-04-22T13:18:06.081Z,30.12
2019-04-22T13:19:01.961Z,30.32
2019-04-22T13:19:58.407Z,30.02
2019-04-22T13:20:57.883Z,30.43
2019-04-22T13:21:58.651Z,30.83
2019-04-22T13:22:58.845Z,30.83
2019-04-22T13:23:59.103Z,30.93
2019-04-22T13:24:57.814Z,30.52
2019-04-22T13:25:59.038Z,31.84
2019-04-22T13:26:59.104Z,31.93
2019-04-22T13:27:57.769Z,31.03
2019-04-22T13:28:59.014Z,31.63
2019-04-22T13:29:59.407Z,32.23
2019-04-22T13:31:01.428Z,32.03
2019-04-22T13:31:58.562Z,31.82
2019-04-22T13:32:58.733Z,31.13
2019-04-22T13:34:01.696Z,30.63
2019-04-22T13:35:01.553Z,31.42
2019-04-22T13:35:57.710Z,31.32
2019-04-22T13:36:58.975Z,30.91
2019-04-22T13:37:59.241Z,31.42
2019-04-22T13:38:58.723Z,31.82
2019-04-22T13:39:58.882Z,32.23
2019-04-22T13:41:08.284Z,31.82
2019-04-22T13:42:03.536Z,32.01
2019-04-22T13:42:58.707Z,32.23
2019-04-22T13:43:58.101Z,31.82
2019-04-22T13:44:58.138Z,32.11
2019-04-22T13:45:58.439Z,32.21
2019-04-22T13:47:17.039Z,31.81
2019-04-22T13:48:18.103Z,31.81
2019-04-22T13:50:38.350Z,31.81
2019-04-22T13:51:33.950Z,31.51
2019-04-22T13:53:42.008Z,32.11
2019-04-22T13:54:14.016Z,31.71
2019-04-22T13:55:23.992Z,32.01
2019-04-22T13:56:18.848Z,32.21
2019-04-22T13:57:19.985Z,32.31
2019-04-22T13:58:11.896Z,31.91
2019-04-22T13:59:09.201Z,32.91
2019-04-22T14:00:01.847Z,32.32
2019-04-22T14:00:58.572Z,32.23
2019-04-22T14:01:58.636Z,32.01
2019-04-22T14:02:58.224Z,32.51
2019-04-22T14:03:58.769Z,32.21
2019-04-22T14:04:58.819Z,32.71
2019-04-22T14:05:58.545Z,32.51
2019-04-22T14:06:58.666Z,33.20
2019-04-22T14:07:59.365Z,33.01
2019-04-22T14:08:58.763Z,33.10
2019-04-22T14:09:58.187Z,33.42
2019-04-22T14:11:09.895Z,33.30
2019-04-22T14:12:01.922Z,33.10
2019-04-22T14:12:57.273Z,33.70
2019-04-22T14:13:58.621Z,33.60
2019-04-22T14:14:58.381Z,33.60
2019-04-22T14:15:57.246Z,32.91
2019-04-22T14:16:58.673Z,33.62
2019-04-22T14:17:57.220Z,33.72
2019-04-22T14:18:58.116Z,33.51
2019-04-22T14:19:57.206Z,33.03
2019-04-22T14:20:58.408Z,34.22
2019-04-22T14:21:57.792Z,33.84
2019-04-22T14:22:57.184Z,34.14
2019-04-22T14:23:58.500Z,34.14
2019-04-22T14:24:58.678Z,34.56
2019-04-22T14:25:57.148Z,34.05
2019-04-22T14:27:13.862Z,33.95
2019-04-22T14:28:03.577Z,34.36
2019-04-22T14:28:58.617Z,35.28
2019-04-22T14:29:57.686Z,34.76
2019-04-22T14:30:57.081Z,33.76
2019-04-22T14:32:06.927Z,35.38
2019-04-22T14:32:58.110Z,35.48
2019-04-22T14:34:01.363Z,35.68
2019-04-22T14:34:57.376Z,35.66
2019-04-22T14:35:58.083Z,35.66